Atwater, New York
Current Conditions -  °F | °C
As of 5:09 AM on Sunday 25 Jan 2015 (Local Time) from KITH Reporting Station
Light Snow Light Snow  
Wind Chill: 16°   Ceiling: 3200
Heat Index: 30°   Visibility: 10mi
Dew Point: 21°   Wind: 24mph
Humidity: 69%   Direction: 320°NW
Pressure: 29.59"   Gusts: 29mph
Location:  42.6734°N, 76.6263°W
Report Text: KITH 251009Z AUTO 32021G25KT 10SM -SN SCT023 BKN032 OVC048 M01/M06 A2959 RMK AO2 BKN V SCT P0000
Loading
Personal Weather Stations






























Interactive Weather Map New forecast layout! Learn more

10-Day Weather Forecast

Advertisements
Track Severe Weather on mobile